createdAt,value
2018-09-08T00:00:48.944Z,1011.68
2018-09-08T00:01:48.965Z,1011.64
2018-09-08T00:02:48.984Z,1011.65
2018-09-08T00:03:49.009Z,1011.66
2018-09-08T00:04:49.023Z,1011.67
2018-09-08T00:05:49.045Z,1011.65
2018-09-08T00:06:49.064Z,1011.70
2018-09-08T00:07:49.084Z,1011.69
2018-09-08T00:08:49.105Z,1011.70
2018-09-08T00:09:49.125Z,1011.69
2018-09-08T00:10:49.146Z,1011.77
2018-09-08T00:11:49.164Z,1011.70
2018-09-08T00:12:49.182Z,1011.75
2018-09-08T00:13:49.202Z,1011.74
2018-09-08T00:14:49.225Z,1011.75
2018-09-08T00:15:49.245Z,1011.75
2018-09-08T00:16:49.263Z,1011.76
2018-09-08T00:17:49.284Z,1011.76
2018-09-08T00:18:49.304Z,1011.77
2018-09-08T00:19:49.325Z,1011.76
2018-09-08T00:20:49.341Z,1011.76
2018-09-08T00:21:49.361Z,1011.73
2018-09-08T00:22:49.383Z,1011.75
2018-09-08T00:23:49.404Z,1011.77
2018-09-08T00:24:49.424Z,1011.72
2018-09-08T00:25:49.441Z,1011.70
2018-09-08T00:26:49.461Z,1011.73
2018-09-08T00:27:49.481Z,1011.73
2018-09-08T00:28:49.501Z,1011.72
2018-09-08T00:29:49.521Z,1011.77
2018-09-08T00:30:49.544Z,1011.75
2018-09-08T00:31:49.563Z,1011.79
2018-09-08T00:32:49.583Z,1011.74
2018-09-08T00:33:49.602Z,1011.79
2018-09-08T00:34:49.622Z,1011.77
2018-09-08T00:35:49.641Z,1011.80
2018-09-08T00:36:49.667Z,1011.80
2018-09-08T00:37:49.680Z,1011.85
2018-09-08T00:38:49.703Z,1011.86
2018-09-08T00:39:49.721Z,1011.89
2018-09-08T00:40:49.740Z,1011.90
2018-09-08T00:41:49.760Z,1011.90
2018-09-08T00:42:49.786Z,1011.94
2018-09-08T00:43:49.809Z,1011.95
2018-09-08T00:44:49.823Z,1011.94
2018-09-08T00:45:49.874Z,1011.92
2018-09-08T00:46:49.862Z,1011.95
2018-09-08T00:47:49.883Z,1011.91
2018-09-08T00:48:49.901Z,1011.93
2018-09-08T00:49:49.922Z,1011.96
2018-09-08T00:50:49.946Z,1011.98
2018-09-08T00:51:49.968Z,1011.93
2018-09-08T00:52:49.980Z,1011.92
2018-09-08T00:53:50.000Z,1011.94
2018-09-08T00:54:50.020Z,1011.95
2018-09-08T00:55:50.042Z,1011.98
2018-09-08T00:56:50.240Z,1011.98
2018-09-08T00:57:50.081Z,1011.99
2018-09-08T00:58:50.104Z,1012.04
2018-09-08T00:59:50.121Z,1012.05
2018-09-08T01:00:50.145Z,1012.02
2018-09-08T01:01:50.162Z,1012.07
2018-09-08T01:02:50.181Z,1012.11
2018-09-08T01:03:50.268Z,1012.08
2018-09-08T01:04:50.219Z,1012.13
2018-09-08T01:05:50.241Z,1012.11
2018-09-08T01:06:50.259Z,1012.06
2018-09-08T01:07:50.282Z,1012.07
2018-09-08T01:08:50.302Z,1012.05
2018-09-08T01:09:50.319Z,1011.98
2018-09-08T01:10:50.340Z,1011.99
2018-09-08T01:11:50.367Z,1011.97
2018-09-08T01:12:50.381Z,1011.97
2018-09-08T01:13:50.405Z,1011.98
2018-09-08T01:14:50.422Z,1011.98
2018-09-08T01:15:50.441Z,1011.96
2018-09-08T01:16:50.459Z,1011.96
2018-09-08T01:17:50.479Z,1011.98
2018-09-08T01:18:50.500Z,1011.96
2018-09-08T01:19:50.522Z,1012.01
2018-09-08T01:20:50.541Z,1011.95
2018-09-08T01:21:50.560Z,1011.94
2018-09-08T01:22:50.582Z,1011.96
2018-09-08T01:23:50.628Z,1011.95
2018-09-08T01:24:50.621Z,1011.93
2018-09-08T01:25:50.641Z,1011.94
2018-09-08T01:26:50.658Z,1011.98
2018-09-08T01:27:50.681Z,1011.98
2018-09-08T01:28:50.721Z,1011.97
2018-09-08T01:29:50.717Z,1011.96
2018-09-08T01:30:50.741Z,1011.96
2018-09-08T01:31:50.761Z,1011.99
2018-09-08T01:32:50.778Z,1012.00
2018-09-08T01:33:50.800Z,1012.00
2018-09-08T01:34:50.820Z,1011.97
2018-09-08T01:35:50.865Z,1012.01
2018-09-08T01:36:50.859Z,1012.04
2018-09-08T01:37:50.878Z,1012.04
2018-09-08T01:38:50.896Z,1012.06
2018-09-08T01:39:50.918Z,1012.04
2018-09-08T01:40:50.937Z,1011.96
2018-09-08T01:41:50.957Z,1012.01
2018-09-08T01:42:50.975Z,1012.04
2018-09-08T01:43:50.998Z,1012.00
2018-09-08T01:44:51.014Z,1012.01
2018-09-08T01:45:51.039Z,1011.98
2018-09-08T01:46:51.054Z,1012.03
2018-09-08T01:47:51.074Z,1012.04
2018-09-08T01:48:51.093Z,1012.05
2018-09-08T01:49:51.112Z,1012.04
2018-09-08T01:50:51.140Z,1012.04
2018-09-08T01:51:51.154Z,1012.06
2018-09-08T01:52:51.174Z,1012.08
2018-09-08T01:53:51.195Z,1012.06
2018-09-08T01:54:51.217Z,1012.08
2018-09-08T01:55:51.232Z,1012.03
2018-09-08T01:56:51.252Z,1012.03
2018-09-08T01:57:51.273Z,1012.04
2018-09-08T01:58:51.318Z,1012.03
2018-09-08T01:59:51.316Z,1011.99
2018-09-08T02:00:51.330Z,1012.09
2018-09-08T02:01:51.350Z,1012.06
2018-09-08T02:02:51.371Z,1012.08
2018-09-08T02:03:51.390Z,1012.10
2018-09-08T02:04:51.414Z,1012.07
2018-09-08T02:05:51.427Z,1012.03
2018-09-08T02:06:51.447Z,1012.05
2018-09-08T02:07:51.467Z,1012.09
2018-09-08T02:08:51.486Z,1012.13
2018-09-08T02:09:51.509Z,1012.11
2018-09-08T02:10:51.528Z,1012.11
2018-09-08T02:11:51.549Z,1012.11
2018-09-08T02:12:51.566Z,1012.13
2018-09-08T02:13:51.588Z,1012.07
2018-09-08T02:14:51.605Z,1012.05
2018-09-08T02:15:51.625Z,1012.05
2018-09-08T02:16:51.642Z,1012.05
2018-09-08T02:17:51.664Z,1012.10
2018-09-08T02:18:51.682Z,1012.04
2018-09-08T02:19:51.704Z,1012.01
2018-09-08T02:20:51.720Z,1011.99
2018-09-08T02:21:51.741Z,1012.01
2018-09-08T02:22:51.763Z,1012.00
2018-09-08T02:23:51.782Z,1011.96
2018-09-08T02:24:51.800Z,1011.95
2018-09-08T02:25:51.819Z,1012.01
2018-09-08T02:26:51.838Z,1011.98
2018-09-08T02:27:51.859Z,1012.05
2018-09-08T02:28:51.880Z,1012.01
2018-09-08T02:29:51.901Z,1012.02
2018-09-08T02:30:51.916Z,1012.01
2018-09-08T02:31:51.941Z,1012.04
2018-09-08T02:32:51.954Z,1012.00
2018-09-08T02:33:51.984Z,1012.01
2018-09-08T02:34:52.007Z,1012.02
2018-09-08T02:35:52.016Z,1012.00
2018-09-08T02:36:52.033Z,1011.99
2018-09-08T02:37:52.053Z,1012.04
2018-09-08T02:38:52.074Z,1012.04
2018-09-08T02:39:52.094Z,1012.04
2018-09-08T02:40:52.112Z,1011.99
2018-09-08T02:41:52.133Z,1012.00
2018-09-08T02:42:52.151Z,1012.01
2018-09-08T02:43:52.174Z,1012.04
2018-09-08T02:44:52.189Z,1012.07
2018-09-08T02:45:52.207Z,1012.01
2018-09-08T02:46:52.557Z,1012.03
2018-09-08T02:47:52.248Z,1012.06
2018-09-08T02:48:52.267Z,1012.09
2018-09-08T02:49:52.285Z,1012.05
2018-09-08T02:50:52.307Z,1012.05
2018-09-08T02:51:52.324Z,1012.03
2018-09-08T02:52:52.349Z,1011.99
2018-09-08T02:53:52.370Z,1012.00
2018-09-08T02:54:52.382Z,1012.00
2018-09-08T02:55:52.401Z,1012.02
2018-09-08T02:56:52.422Z,1011.96
2018-09-08T02:57:52.442Z,1011.98
2018-09-08T02:58:52.460Z,1012.00
2018-09-08T02:59:52.478Z,1011.99
2018-09-08T03:00:52.499Z,1011.98
2018-09-08T03:01:52.519Z,1012.00
2018-09-08T03:02:52.537Z,1012.02
2018-09-08T03:03:52.559Z,1011.99
2018-09-08T03:04:52.575Z,1012.05
2018-09-08T03:05:52.595Z,1012.02
2018-09-08T03:06:52.615Z,1012.06
2018-09-08T03:07:52.640Z,1012.02
2018-09-08T03:08:52.679Z,1012.03
2018-09-08T03:09:52.674Z,1012.04
2018-09-08T03:10:52.691Z,1012.03
2018-09-08T03:11:52.714Z,1012.02
2018-09-08T03:12:52.736Z,1012.02
2018-09-08T03:13:52.751Z,1012.05
2018-09-08T03:14:52.770Z,1012.08
2018-09-08T03:15:52.791Z,1012.05
2018-09-08T03:16:52.810Z,1012.09
2018-09-08T03:17:52.827Z,1012.09
2018-09-08T03:18:52.849Z,1012.07
2018-09-08T03:19:52.867Z,1012.09
2018-09-08T03:20:52.885Z,1012.04
2018-09-08T03:21:52.903Z,1012.07
2018-09-08T03:22:52.927Z,1012.07
2018-09-08T03:23:52.964Z,1012.09
2018-09-08T03:24:52.961Z,1012.12
2018-09-08T03:25:52.981Z,1012.12
2018-09-08T03:26:53.006Z,1012.20
2018-09-08T03:27:53.019Z,1012.23
2018-09-08T03:28:53.038Z,1012.23
2018-09-08T03:29:53.058Z,1012.31
2018-09-08T03:30:53.080Z,1012.33
2018-09-08T03:31:53.097Z,1012.35
2018-09-08T03:32:53.117Z,1012.38
2018-09-08T03:33:53.134Z,1012.42
2018-09-08T03:34:53.154Z,1012.39
2018-09-08T03:35:53.176Z,1012.42
2018-09-08T03:36:53.191Z,1012.41
2018-09-08T03:37:53.213Z,1012.43
2018-09-08T03:38:53.234Z,1012.45
2018-09-08T03:39:53.249Z,1012.45
2018-09-08T03:40:53.268Z,1012.44
2018-09-08T03:41:53.288Z,1012.47
2018-09-08T03:42:53.307Z,1012.51
2018-09-08T03:43:53.330Z,1012.51
2018-09-08T03:44:53.345Z,1012.50
2018-09-08T03:45:53.368Z,1012.51
2018-09-08T03:46:53.383Z,1012.54
2018-09-08T03:47:53.403Z,1012.50
2018-09-08T03:48:53.423Z,1012.54
2018-09-08T03:49:53.442Z,1012.55
2018-09-08T03:50:53.463Z,1012.52
2018-09-08T03:51:53.482Z,1012.56
2018-09-08T03:52:53.499Z,1012.53
2018-09-08T03:53:53.519Z,1012.56
2018-09-08T03:54:53.541Z,1012.56
2018-09-08T03:55:53.557Z,1012.52
2018-09-08T03:56:53.577Z,1012.54
2018-09-08T03:57:53.597Z,1012.55
2018-09-08T03:58:53.625Z,1012.54
2018-09-08T03:59:53.634Z,1012.53
2018-09-08T04:00:53.656Z,1012.57
2018-09-08T04:01:53.674Z,1012.55
2018-09-08T04:02:53.691Z,1012.60
2018-09-08T04:03:53.714Z,1012.57
2018-09-08T04:04:53.731Z,1012.60
2018-09-08T04:05:53.751Z,1012.60
2018-09-08T04:06:53.771Z,1012.58
2018-09-08T04:07:53.789Z,1012.56
2018-09-08T04:08:53.809Z,1012.58
2018-09-08T04:09:53.826Z,1012.61
2018-09-08T04:10:53.852Z,1012.60
2018-09-08T04:11:53.864Z,1012.59
2018-09-08T04:12:53.885Z,1012.60
2018-09-08T04:13:53.903Z,1012.57
2018-09-08T04:14:53.925Z,1012.59
2018-09-08T04:15:53.941Z,1012.58
2018-09-08T04:16:53.961Z,1012.57
2018-09-08T04:17:53.981Z,1012.57
2018-09-08T04:18:54.002Z,1012.60
2018-09-08T04:19:54.021Z,1012.66
2018-09-08T04:20:54.038Z,1012.64
2018-09-08T04:21:54.057Z,1012.62
2018-09-08T04:22:54.075Z,1012.68
2018-09-08T04:23:54.100Z,1012.62
2018-09-08T04:24:54.113Z,1012.65
2018-09-08T04:25:54.135Z,1012.68
2018-09-08T04:26:54.153Z,1012.63
2018-09-08T04:27:54.170Z,1012.65
2018-09-08T04:28:54.188Z,1012.67
2018-09-08T04:29:54.209Z,1012.62
2018-09-08T04:30:54.230Z,1012.65
2018-09-08T04:31:54.247Z,1012.65
2018-09-08T04:32:54.267Z,1012.63
2018-09-08T04:33:54.288Z,1012.64
2018-09-08T04:34:54.304Z,1012.68
2018-09-08T04:35:54.325Z,1012.65
2018-09-08T04:36:54.343Z,1012.66
2018-09-08T04:37:54.363Z,1012.65
2018-09-08T04:38:54.381Z,1012.68
2018-09-08T04:39:54.403Z,1012.69
2018-09-08T04:40:54.493Z,1012.71
2018-09-08T04:41:54.437Z,1012.70
2018-09-08T04:42:54.456Z,1012.76
2018-09-08T04:43:54.479Z,1012.74
2018-09-08T04:44:54.496Z,1012.75
2018-09-08T04:45:54.515Z,1012.73
2018-09-08T04:46:54.538Z,1012.76
2018-09-08T04:47:54.554Z,1012.79
2018-09-08T04:48:54.570Z,1012.73
2018-09-08T04:49:54.591Z,1012.75
2018-09-08T04:50:54.610Z,1012.76
2018-09-08T04:51:54.631Z,1012.74
2018-09-08T04:52:54.645Z,1012.77
2018-09-08T04:53:54.665Z,1012.80
2018-09-08T04:54:54.685Z,1012.83
2018-09-08T04:55:54.707Z,1012.81
2018-09-08T04:56:54.721Z,1012.84
2018-09-08T04:57:54.744Z,1012.86
2018-09-08T04:58:54.764Z,1012.87
2018-09-08T04:59:54.782Z,1012.87
2018-09-08T05:00:54.805Z,1012.88
2018-09-08T05:01:54.818Z,1012.84
2018-09-08T05:02:54.838Z,1012.86
2018-09-08T05:03:54.855Z,1012.88
2018-09-08T05:04:54.879Z,1012.86
2018-09-08T05:05:54.895Z,1012.89
2018-09-08T05:06:54.914Z,1012.83
2018-09-08T05:07:54.932Z,1012.87
2018-09-08T05:08:54.960Z,1012.89
2018-09-08T05:09:54.972Z,1012.87
2018-09-08T05:10:54.989Z,1012.90
2018-09-08T05:11:55.008Z,1012.93
2018-09-08T05:12:55.028Z,1012.92
2018-09-08T05:13:55.049Z,1012.96
2018-09-08T05:14:55.067Z,1012.96
2018-09-08T05:15:55.088Z,1012.95
2018-09-08T05:16:55.102Z,1012.97
2018-09-08T05:17:55.124Z,1012.99
2018-09-08T05:18:55.146Z,1012.97
2018-09-08T05:19:55.160Z,1012.96
2018-09-08T05:20:55.180Z,1012.95
2018-09-08T05:21:55.199Z,1012.97
2018-09-08T05:22:55.220Z,1012.94
2018-09-08T05:23:55.238Z,1012.98
2018-09-08T05:24:55.256Z,1012.98
2018-09-08T05:25:55.281Z,1012.97
2018-09-08T05:26:55.293Z,1012.99
2018-09-08T05:27:55.316Z,1012.99
2018-09-08T05:28:55.336Z,1012.99
2018-09-08T05:29:55.353Z,1013.04
2018-09-08T05:30:55.368Z,1013.03
2018-09-08T05:31:55.391Z,1013.01
2018-09-08T05:32:55.409Z,1013.02
2018-09-08T05:33:55.427Z,1013.00
2018-09-08T05:34:55.467Z,1013.10
2018-09-08T05:35:55.464Z,1013.08
2018-09-08T05:36:55.483Z,1013.06
2018-09-08T05:37:55.505Z,1013.10
2018-09-08T05:38:55.521Z,1013.12
2018-09-08T05:39:55.543Z,1013.12
2018-09-08T05:40:55.562Z,1013.13
2018-09-08T05:41:55.580Z,1013.10
2018-09-08T05:42:55.607Z,1013.14
2018-09-08T05:43:55.616Z,1013.11
2018-09-08T05:44:55.640Z,1013.14
2018-09-08T05:45:55.655Z,1013.17
2018-09-08T05:46:55.677Z,1013.14
2018-09-08T05:47:55.696Z,1013.15
2018-09-08T05:48:56.134Z,1013.16
2018-09-08T05:49:55.731Z,1013.18
2018-09-08T05:50:55.753Z,1013.19
2018-09-08T05:51:55.772Z,1013.15
2018-09-08T05:52:55.788Z,1013.19
2018-09-08T05:53:55.810Z,1013.26
2018-09-08T05:54:55.827Z,1013.16
2018-09-08T05:55:55.846Z,1013.20
2018-09-08T05:56:55.866Z,1013.21
2018-09-08T05:57:55.886Z,1013.19
2018-09-08T05:58:55.902Z,1013.19
2018-09-08T05:59:55.925Z,1013.23
2018-09-08T06:00:55.940Z,1013.23
2018-09-08T06:01:55.960Z,1013.26
2018-09-08T06:02:55.980Z,1013.25
2018-09-08T06:03:56.003Z,1013.26
2018-09-08T06:04:56.019Z,1013.30
2018-09-08T06:05:56.039Z,1013.32
2018-09-08T06:06:56.083Z,1013.32
2018-09-08T06:07:56.081Z,1013.33
2018-09-08T06:08:56.097Z,1013.33
2018-09-08T06:09:56.143Z,1013.37
2018-09-08T06:10:56.132Z,1013.33
2018-09-08T06:11:56.152Z,1013.33
2018-09-08T06:12:56.173Z,1013.39
2018-09-08T06:13:56.192Z,1013.35
2018-09-08T06:14:56.212Z,1013.36
2018-09-08T06:15:56.230Z,1013.37
2018-09-08T06:16:56.247Z,1013.37
2018-09-08T06:17:56.268Z,1013.39
2018-09-08T06:18:56.288Z,1013.40
2018-09-08T06:19:56.307Z,1013.40
2018-09-08T06:20:56.324Z,1013.39
2018-09-08T06:21:56.345Z,1013.40
2018-09-08T06:22:56.369Z,1013.45
2018-09-08T06:23:56.384Z,1013.46
2018-09-08T06:24:56.400Z,1013.47
2018-09-08T06:25:56.423Z,1013.45
2018-09-08T06:26:56.442Z,1013.48
2018-09-08T06:27:56.462Z,1013.45
2018-09-08T06:28:56.477Z,1013.44
2018-09-08T06:29:56.498Z,1013.41
2018-09-08T06:30:56.517Z,1013.43
2018-09-08T06:31:56.591Z,1013.38
2018-09-08T06:32:56.557Z,1013.45
2018-09-08T06:33:56.638Z,1013.47
2018-09-08T06:34:56.597Z,1013.44
2018-09-08T06:35:56.616Z,1013.45
2018-09-08T06:36:56.660Z,1013.48
2018-09-08T06:37:56.653Z,1013.46
2018-09-08T06:38:56.674Z,1013.48
2018-09-08T06:39:56.698Z,1013.48
2018-09-08T06:40:56.713Z,1013.49
2018-09-08T06:41:56.733Z,1013.50
2018-09-08T06:42:56.751Z,1013.54
2018-09-08T06:43:56.769Z,1013.51
2018-09-08T06:44:56.863Z,1013.52
2018-09-08T06:45:56.814Z,1013.48
2018-09-08T06:46:56.832Z,1013.53
2018-09-08T06:47:56.848Z,1013.53
2018-09-08T06:48:56.869Z,1013.54
2018-09-08T06:49:56.887Z,1013.58
2018-09-08T06:50:56.904Z,1013.58
2018-09-08T06:51:56.927Z,1013.58
2018-09-08T06:52:56.945Z,1013.63
2018-09-08T06:53:56.963Z,1013.60
2018-09-08T06:54:56.990Z,1013.63
2018-09-08T06:55:57.005Z,1013.62
2018-09-08T06:56:57.024Z,1013.65
2018-09-08T06:57:57.088Z,1013.64
2018-09-08T06:58:57.065Z,1013.65
2018-09-08T06:59:57.081Z,1013.69
2018-09-08T07:00:57.101Z,1013.64
2018-09-08T07:01:57.121Z,1013.63
2018-09-08T07:02:57.143Z,1013.66
2018-09-08T07:03:57.161Z,1013.63
2018-09-08T07:04:57.182Z,1013.62
2018-09-08T07:05:57.202Z,1013.65
2018-09-08T07:06:57.220Z,1013.63
2018-09-08T07:07:57.242Z,1013.67
2018-09-08T07:08:57.261Z,1013.67
2018-09-08T07:09:57.281Z,1013.70
2018-09-08T07:10:57.299Z,1013.68
2018-09-08T07:11:57.321Z,1013.64
2018-09-08T07:12:57.340Z,1013.67
2018-09-08T07:13:57.358Z,1013.66
2018-09-08T07:14:57.427Z,1013.68
2018-09-08T07:15:57.400Z,1013.72
2018-09-08T07:16:57.420Z,1013.69
2018-09-08T07:17:57.440Z,1013.73
2018-09-08T07:18:57.461Z,1013.75
2018-09-08T07:19:57.479Z,1013.75
2018-09-08T07:20:57.500Z,1013.73
2018-09-08T07:21:57.528Z,1013.76
2018-09-08T07:22:57.538Z,1013.78
2018-09-08T07:23:57.560Z,1013.72
2018-09-08T07:24:57.618Z,1013.73
2018-09-08T07:25:57.598Z,1013.73
2018-09-08T07:26:57.618Z,1013.70
2018-09-08T07:27:57.640Z,1013.70
2018-09-08T07:28:57.661Z,1013.70
2018-09-08T07:29:57.681Z,1013.74
2018-09-08T07:30:57.709Z,1013.73
2018-09-08T07:31:57.720Z,1013.76
2018-09-08T07:32:57.744Z,1013.71
2018-09-08T07:33:57.763Z,1013.73
2018-09-08T07:34:57.788Z,1013.73
2018-09-08T07:35:57.805Z,1013.72
2018-09-08T07:36:57.825Z,1013.73
2018-09-08T07:37:57.845Z,1013.74
2018-09-08T07:38:57.867Z,1013.69
2018-09-08T07:39:57.886Z,1013.66
2018-09-08T07:40:57.906Z,1013.71
2018-09-08T07:41:57.927Z,1013.71
2018-09-08T07:42:57.949Z,1013.70
2018-09-08T07:43:57.970Z,1013.70
2018-09-08T07:44:57.990Z,1013.68
2018-09-08T07:45:58.050Z,1013.70
2018-09-08T07:46:58.031Z,1013.64
2018-09-08T07:47:58.052Z,1013.65
2018-09-08T07:48:58.074Z,1013.62
2018-09-08T07:49:58.095Z,1013.63
2018-09-08T07:50:58.318Z,1013.62
2018-09-08T07:51:58.139Z,1013.62
2018-09-08T07:52:58.159Z,1013.64
2018-09-08T07:53:58.232Z,1013.66
2018-09-08T07:54:58.197Z,1013.74
2018-09-08T07:55:58.221Z,1013.69
2018-09-08T07:56:58.242Z,1013.76
2018-09-08T07:57:58.263Z,1013.75
2018-09-08T07:58:58.282Z,1013.73
2018-09-08T07:59:58.335Z,1013.75
2018-09-08T08:00:58.323Z,1013.73
2018-09-08T08:01:58.347Z,1013.76
2018-09-08T08:02:58.369Z,1013.77
2018-09-08T08:03:58.386Z,1013.79
2018-09-08T08:04:58.406Z,1013.79
2018-09-08T08:05:58.427Z,1013.85
2018-09-08T08:06:58.450Z,1013.82
2018-09-08T08:07:58.473Z,1013.82
2018-09-08T08:08:58.495Z,1013.87
2018-09-08T08:09:58.513Z,1013.81
2018-09-08T08:10:58.531Z,1013.84
2018-09-08T08:11:58.555Z,1013.85
2018-09-08T08:12:58.573Z,1013.86
2018-09-08T08:13:58.596Z,1013.92
2018-09-08T08:14:58.617Z,1013.91
2018-09-08T08:15:58.639Z,1013.88
2018-09-08T08:16:58.661Z,1013.93
2018-09-08T08:17:58.680Z,1013.91
2018-09-08T08:18:58.708Z,1013.90
2018-09-08T08:19:58.724Z,1013.96
2018-09-08T08:20:58.743Z,1013.96
2018-09-08T08:21:58.765Z,1013.94
2018-09-08T08:22:58.788Z,1013.99
2018-09-08T08:23:58.806Z,1013.94
2018-09-08T08:24:58.829Z,1013.96
2018-09-08T08:25:58.851Z,1013.99
2018-09-08T08:26:58.867Z,1013.95
2018-09-08T08:27:58.889Z,1013.97
2018-09-08T08:28:58.912Z,1013.97
2018-09-08T08:29:58.935Z,1013.97
2018-09-08T08:30:58.997Z,1013.96
2018-09-08T08:31:58.977Z,1013.97
2018-09-08T08:32:58.999Z,1013.98
2018-09-08T08:33:59.020Z,1013.96
2018-09-08T08:34:59.042Z,1014.04
2018-09-08T08:35:59.064Z,1014.06
2018-09-08T08:36:59.085Z,1014.03
2018-09-08T08:37:59.106Z,1014.11
2018-09-08T08:38:59.126Z,1014.13
2018-09-08T08:39:59.147Z,1014.14
2018-09-08T08:40:59.170Z,1014.09
2018-09-08T08:41:59.189Z,1014.04
2018-09-08T08:42:59.214Z,1014.08
2018-09-08T08:43:59.236Z,1014.06
2018-09-08T08:44:59.255Z,1014.10
2018-09-08T08:45:59.282Z,1014.11
2018-09-08T08:46:59.304Z,1014.09
2018-09-08T08:47:59.321Z,1014.08
2018-09-08T08:48:59.341Z,1014.05
2018-09-08T08:49:59.365Z,1014.06
2018-09-08T08:50:59.387Z,1014.09
2018-09-08T08:51:59.410Z,1014.11
2018-09-08T08:52:59.430Z,1014.12
2018-09-08T08:53:59.458Z,1014.13
2018-09-08T08:54:59.472Z,1014.13
2018-09-08T08:55:59.495Z,1014.13
2018-09-08T08:56:59.516Z,1014.14
2018-09-08T08:57:59.541Z,1014.14
2018-09-08T08:58:59.565Z,1014.12
2018-09-08T08:59:59.582Z,1014.10
2018-09-08T09:00:59.603Z,1014.12
2018-09-08T09:01:59.626Z,1014.16
2018-09-08T09:02:59.649Z,1014.15
2018-09-08T09:03:59.671Z,1014.17
2018-09-08T09:04:59.694Z,1014.14
2018-09-08T09:05:59.868Z,1014.17
2018-09-08T09:06:59.741Z,1014.18
2018-09-08T09:07:59.761Z,1014.23
2018-09-08T09:08:59.780Z,1014.21
2018-09-08T09:09:59.806Z,1014.18
2018-09-08T09:10:59.825Z,1014.22
2018-09-08T09:11:59.850Z,1014.20
2018-09-08T09:12:59.948Z,1014.16
2018-09-08T09:13:59.892Z,1014.22
2018-09-08T09:14:59.915Z,1014.19
2018-09-08T09:15:59.937Z,1014.24
2018-09-08T09:16:59.959Z,1014.16
2018-09-08T09:17:59.983Z,1014.21
2018-09-08T09:19:00.406Z,1014.18
2018-09-08T09:20:00.028Z,1014.16
2018-09-08T09:21:00.049Z,1014.18
2018-09-08T09:22:00.072Z,1014.18
2018-09-08T09:23:00.097Z,1014.21
2018-09-08T09:24:00.157Z,1014.23
2018-09-08T09:25:00.225Z,1014.22
2018-09-08T09:26:00.162Z,1014.22
2018-09-08T09:27:00.184Z,1014.18
2018-09-08T09:28:00.211Z,1014.25
2018-09-08T09:29:00.333Z,1014.25
2018-09-08T09:30:00.254Z,1014.22
2018-09-08T09:31:00.275Z,1014.27
2018-09-08T09:32:00.350Z,1014.29
2018-09-08T09:33:00.323Z,1014.28
2018-09-08T09:34:00.345Z,1014.27
2018-09-08T09:35:00.372Z,1014.32
2018-09-08T09:36:00.389Z,1014.30
2018-09-08T09:37:00.411Z,1014.29
2018-09-08T09:38:00.440Z,1014.35
2018-09-08T09:39:00.460Z,1014.29
2018-09-08T09:40:00.480Z,1014.32
2018-09-08T09:41:00.503Z,1014.30
2018-09-08T09:42:00.525Z,1014.31
2018-09-08T09:43:00.551Z,1014.31
2018-09-08T09:44:00.597Z,1014.34
2018-09-08T09:45:00.594Z,1014.37
2018-09-08T09:46:00.620Z,1014.34
2018-09-08T09:47:00.641Z,1014.33
2018-09-08T09:48:00.664Z,1014.35
2018-09-08T09:49:00.687Z,1014.36
2018-09-08T09:50:00.712Z,1014.34
2018-09-08T09:51:00.734Z,1014.36
2018-09-08T09:52:00.755Z,1014.36
2018-09-08T09:53:00.822Z,1014.39
2018-09-08T09:54:00.800Z,1014.39
2018-09-08T09:55:00.826Z,1014.34
2018-09-08T09:56:00.849Z,1014.33
2018-09-08T09:57:00.872Z,1014.33
2018-09-08T09:58:00.895Z,1014.36
2018-09-08T09:59:00.916Z,1014.28
2018-09-08T10:00:00.940Z,1014.23
2018-09-08T10:01:00.972Z,1014.27
2018-09-08T10:02:00.990Z,1014.31
2018-09-08T10:03:01.012Z,1014.30
2018-09-08T10:04:01.036Z,1014.25
2018-09-08T10:05:01.059Z,1014.30
2018-09-08T10:06:01.081Z,1014.26
2018-09-08T10:07:01.106Z,1014.24
2018-09-08T10:08:01.131Z,1014.29
2018-09-08T10:09:01.152Z,1014.32
2018-09-08T10:10:01.175Z,1014.33
2018-09-08T10:11:01.196Z,1014.27
2018-09-08T10:12:01.278Z,1014.29
2018-09-08T10:13:01.243Z,1014.27
2018-09-08T10:14:01.268Z,1014.29
2018-09-08T10:15:01.291Z,1014.25
2018-09-08T10:16:01.315Z,1014.22
2018-09-08T10:17:01.339Z,1014.24
2018-09-08T10:18:01.360Z,1014.26
2018-09-08T10:19:01.388Z,1014.27
2018-09-08T10:20:01.409Z,1014.27
2018-09-08T10:21:01.430Z,1014.27
2018-09-08T10:22:01.458Z,1014.28
2018-09-08T10:23:01.532Z,1014.33
2018-09-08T10:24:05.154Z,1014.35
2018-09-08T10:25:01.529Z,1014.35
2018-09-08T10:26:01.551Z,1014.40
2018-09-08T10:27:01.573Z,1014.38
2018-09-08T10:28:01.600Z,1014.39
2018-09-08T10:29:01.621Z,1014.42
2018-09-08T10:30:02.195Z,1014.36
2018-09-08T10:31:01.670Z,1014.38
2018-09-08T10:32:01.692Z,1014.36
2018-09-08T10:33:01.717Z,1014.40
2018-09-08T10:34:01.741Z,1014.36
2018-09-08T10:35:01.765Z,1014.35
2018-09-08T10:36:01.789Z,1014.37
2018-09-08T10:37:01.814Z,1014.39
2018-09-08T10:38:01.835Z,1014.41
2018-09-08T10:39:01.860Z,1014.41
2018-09-08T10:40:01.910Z,1014.38
2018-09-08T10:41:01.914Z,1014.38
2018-09-08T10:42:01.931Z,1014.34
2018-09-08T10:43:01.956Z,1014.29
2018-09-08T10:44:02.129Z,1014.26
2018-09-08T10:45:02.003Z,1014.30
2018-09-08T10:46:02.027Z,1014.23
2018-09-08T10:47:02.051Z,1014.20
2018-09-08T10:48:02.073Z,1014.25
2018-09-08T10:49:02.103Z,1014.27
2018-09-08T10:50:02.121Z,1014.33
2018-09-08T10:51:02.199Z,1014.32
2018-09-08T10:52:02.168Z,1014.30
2018-09-08T10:53:02.192Z,1014.31
2018-09-08T10:54:02.216Z,1014.34
2018-09-08T10:55:02.240Z,1014.34
2018-09-08T10:56:02.266Z,1014.34
2018-09-08T10:57:02.288Z,1014.37
2018-09-08T10:58:02.319Z,1014.35
2018-09-08T10:59:02.339Z,1014.36
2018-09-08T11:00:02.362Z,1014.35
2018-09-08T11:01:02.383Z,1014.35
2018-09-08T11:02:02.739Z,1014.31
2018-09-08T11:03:02.436Z,1014.28
2018-09-08T11:04:02.465Z,1014.29
2018-09-08T11:05:02.482Z,1014.32
2018-09-08T11:06:02.706Z,1014.26
2018-09-08T11:07:02.531Z,1014.28
2018-09-08T11:08:02.553Z,1014.30
2018-09-08T11:09:02.575Z,1014.31
2018-09-08T11:10:02.601Z,1014.33
2018-09-08T11:11:02.623Z,1014.24
2018-09-08T11:12:02.647Z,1014.27
2018-09-08T11:13:02.671Z,1014.26
2018-09-08T11:14:02.697Z,1014.26
2018-09-08T11:15:02.719Z,1014.25
2018-09-08T11:16:02.747Z,1014.26
2018-09-08T11:17:02.776Z,1014.31
2018-09-08T11:18:02.793Z,1014.25
2018-09-08T11:19:02.819Z,1014.21
2018-09-08T11:20:02.844Z,1014.20
2018-09-08T11:21:02.865Z,1014.28
2018-09-08T11:22:02.889Z,1014.29
2018-09-08T11:23:02.914Z,1014.26
2018-09-08T11:24:02.938Z,1014.24
2018-09-08T11:25:02.963Z,1014.25
2018-09-08T11:26:02.983Z,1014.22
2018-09-08T11:27:03.008Z,1014.22
2018-09-08T11:28:03.032Z,1014.23
2018-09-08T11:29:03.058Z,1014.27
2018-09-08T11:30:03.081Z,1014.24
2018-09-08T11:31:03.105Z,1014.28
2018-09-08T11:32:03.131Z,1014.26
2018-09-08T11:33:03.152Z,1014.25
2018-09-08T11:34:03.176Z,1014.26
2018-09-08T11:35:03.204Z,1014.25
2018-09-08T11:36:03.232Z,1014.25
2018-09-08T11:37:03.248Z,1014.30
2018-09-08T11:38:03.328Z,1014.26
2018-09-08T11:39:03.299Z,1014.29
2018-09-08T11:40:03.321Z,1014.26
2018-09-08T11:41:03.347Z,1014.32
2018-09-08T11:42:03.373Z,1014.32
2018-09-08T11:43:03.396Z,1014.31
2018-09-08T11:44:03.721Z,1014.30
2018-09-08T11:45:03.442Z,1014.25
2018-09-08T11:46:03.801Z,1014.21
2018-09-08T11:47:03.490Z,1014.20
2018-09-08T11:48:03.514Z,1014.19
2018-09-08T11:49:03.536Z,1014.16
2018-09-08T11:50:03.563Z,1014.20
2018-09-08T11:51:03.585Z,1014.15
2018-09-08T11:52:03.611Z,1014.18
2018-09-08T11:53:03.799Z,1014.27
2018-09-08T11:54:03.655Z,1014.30
2018-09-08T11:55:03.683Z,1014.26
2018-09-08T11:56:03.704Z,1014.27
2018-09-08T11:57:03.730Z,1014.26
2018-09-08T11:58:03.753Z,1014.23
2018-09-08T11:59:03.777Z,1014.20
2018-09-08T12:00:03.802Z,1014.19
2018-09-08T12:01:03.822Z,1014.21
2018-09-08T12:02:03.891Z,1014.25
2018-09-08T12:03:03.966Z,1014.19
2018-09-08T12:04:03.897Z,1014.21
2018-09-08T12:05:03.918Z,1014.18
2018-09-08T12:06:03.941Z,1014.22